Date,TemperatureHighF,TemperatureAvgF,TemperatureLowF,DewpointHighF,DewpointAvgF,DewpointLowF,HumidityHigh,HumidityAvg,HumidityLow,PressureMaxIn,PressureMinIn,WindSpeedMaxMPH,WindSpeedAvgMPH,GustSpeedMaxMPH,PrecipitationSumIn
2013-2-1,33.0,28.5,23.0,11.0,-3.7,-10.0,46,25,15,0.00,40.00,13,6,32,0.00
2013-2-2,30.0,24.2,16.0,0.0,-5.6,-11.0,41,27,18,0.00,40.00,10,4,18,0.00
2013-2-3,26.0,24.1,21.0,20.0,16.0,0.0,83,72,32,0.00,40.00,7,3,14,0.00
2013-2-4,30.0,23.6,19.0,19.0,4.5,-10.0,83,49,18,0.00,40.00,10,4,23,0.00
2013-2-5,30.0,23.5,20.0,19.0,2.6,-4.0,79,41,26,0.00,40.00,7,3,12,0.00
2013-2-6,39.0,30.0,23.0,23.0,12.5,-10.0,85,55,18,0.00,40.00,8,3,20,0.00
2013-2-7,29.0,22.4,15.0,-3.0,-11.8,-18.0,43,22,13,0.00,40.00,10,3,18,0.00
2013-2-8,26.0,22.1,17.0,20.0,15.0,-8.0,89,76,23,0.00,40.00,10,3,27,0.00
2013-2-9,21.0,17.7,15.0,15.0,7.4,-4.0,86,66,41,0.00,40.00,20,12,38,0.00
2013-2-10,41.0,30.0,15.0,4.0,-16.7,-24.0,46,16,6,0.00,40.00,14,6,22,0.00
2013-2-11,35.0,27.9,17.0,31.0,19.2,0.0,90,71,33,0.00,40.00,5,1,8,0.00
2013-2-12,42.0,36.9,33.0,33.0,25.1,20.0,91,64,41,0.00,40.00,9,4,20,0.00
2013-2-13,45.0,33.9,29.0,21.0,18.3,12.0,66,54,26,0.00,40.00,7,2,16,0.00
2013-2-14,45.0,35.3,29.0,22.0,15.5,6.0,66,47,20,0.00,40.00,7,3,16,0.00
2013-2-15,51.0,33.6,30.0,29.0,20.8,19.0,85,60,32,0.00,40.00,9,4,16,0.00
2013-2-16,38.0,33.3,30.0,30.0,25.1,10.0,87,74,37,0.00,40.00,8,3,15,0.00
2013-2-17,29.0,21.6,17.0,14.0,9.8,-11.0,84,63,23,0.00,40.00,21,12,37,0.00
2013-2-18,31.0,24.1,15.0,-8.0,-13.7,-22.0,34,19,9,0.00,40.00,14,5,30,0.00
2013-2-19,47.0,34.5,22.0,39.0,11.0,-11.0,89,41,21,0.00,40.00,10,4,15,0.00
2013-2-20,38.0,30.0,26.0,35.0,3.9,-2.0,89,34,21,0.00,40.00,12,5,24,0.00
2013-2-21,32.0,26.6,24.0,9.0,3.9,-2.0,51,38,24,0.00,40.00,17,8,30,0.00
2013-2-22,39.0,33.0,27.0,19.0,13.7,7.0,60,47,26,0.00,40.00,6,4,9,0.00
2013-2-23,37.0,32.8,29.0,29.0,24.8,19.0,84,72,65,0.00,40.00,3,2,10,0.00
2013-2-24,34.0,32.3,31.0,31.0,29.5,28.0,90,89,88,0.00,40.00,7,4,20,0.00
2013-2-25,37.0,30.6,30.0,30.0,27.6,27.0,90,89,77,0.00,40.00,6,2,15,0.00
2013-2-26,41.0,35.1,29.0,35.0,26.9,19.0,89,73,43,0.00,40.00,5,2,15,0.00
2013-2-27,40.0,37.9,36.0,37.0,33.8,27.0,89,85,70,0.00,40.00,16,5,29,0.00
2013-2-28,46.0,34.1,33.0,34.0,28.3,-99.9,90,88,59,0.00,40.00,9,3,14,0.00